createdAt,value
2018-03-02T00:01:27.664Z,94.2
2018-03-02T00:11:26.912Z,82.8
2018-03-02T00:21:26.993Z,90.2
2018-03-02T00:31:27.178Z,90.3
2018-03-02T00:41:27.718Z,92.6
2018-03-02T00:51:26.958Z,105.4
2018-03-02T01:01:28.121Z,72.8
2018-03-02T01:11:30.387Z,76.7
2018-03-02T01:21:28.072Z,90.8
2018-03-02T01:31:27.677Z,84.3
2018-03-02T01:41:27.331Z,100.1
2018-03-02T01:51:26.632Z,79.8
2018-03-02T02:01:28.336Z,84.3
2018-03-02T02:11:26.919Z,78.3
2018-03-02T02:21:27.014Z,86.3
2018-03-02T02:31:26.929Z,91.7
2018-03-02T02:41:26.185Z,96.4
2018-03-02T02:51:26.542Z,80.4
2018-03-02T03:01:26.785Z,101.6
2018-03-02T03:11:26.002Z,82.2
2018-03-02T03:21:26.562Z,83.1
2018-03-02T03:31:27.749Z,88.1
2018-03-02T03:41:25.957Z,76.6
2018-03-02T03:51:27.677Z,81.1
2018-03-02T04:01:27.234Z,72.0
2018-03-02T04:11:27.339Z,92.6
2018-03-02T04:21:27.187Z,93.9
2018-03-02T04:31:27.142Z,77.7
2018-03-02T04:41:26.492Z,85.7
2018-03-02T04:51:26.753Z,77.5
2018-03-02T05:01:32.966Z,78.1
2018-03-02T05:11:26.380Z,85.7
2018-03-02T05:21:28.547Z,75.1
2018-03-02T05:31:29.858Z,73.3
2018-03-02T05:41:26.521Z,85.8
2018-03-02T05:51:27.314Z,83.0
2018-03-02T06:01:26.671Z,90.2
2018-03-02T06:11:27.070Z,75.8
2018-03-02T06:21:27.288Z,63.6
2018-03-02T06:31:26.914Z,95.2
2018-03-02T06:41:26.766Z,102.4
2018-03-02T06:51:27.415Z,85.3
2018-03-02T07:01:26.800Z,94.9
2018-03-02T07:11:26.028Z,94.1
2018-03-02T07:21:27.472Z,102.6
2018-03-02T07:31:27.481Z,94.4
2018-03-02T07:41:27.411Z,129.2
2018-03-02T07:51:28.944Z,82.1
2018-03-02T08:01:26.623Z,86.1
2018-03-02T08:11:27.185Z,87.7
2018-03-02T08:21:26.699Z,66.7
2018-03-02T08:31:26.091Z,70.2
2018-03-02T08:41:26.584Z,69.3
2018-03-02T08:51:27.210Z,69.2
2018-03-02T09:01:26.491Z,68.1
2018-03-02T09:11:27.794Z,59.7
2018-03-02T09:21:28.870Z,65.1
2018-03-02T09:31:26.294Z,69.2
2018-03-02T09:41:27.213Z,74.0
2018-03-02T09:51:26.618Z,81.7
2018-03-02T10:01:26.994Z,65.6
2018-03-02T10:11:26.962Z,63.5
2018-03-02T10:21:26.834Z,61.5
2018-03-02T10:31:26.452Z,65.3
2018-03-02T10:41:27.451Z,58.6
2018-03-02T10:51:27.461Z,69.2
2018-03-02T11:01:28.174Z,56.8
2018-03-02T11:11:26.467Z,59.0
2018-03-02T11:21:27.583Z,46.0
2018-03-02T11:31:28.400Z,63.3
2018-03-02T11:41:26.960Z,83.3
2018-03-02T11:51:26.570Z,76.0
2018-03-02T12:01:27.897Z,73.0
2018-03-02T12:11:26.323Z,82.7
2018-03-02T12:21:28.939Z,79.0
2018-03-02T12:31:26.531Z,69.3
2018-03-02T12:41:26.983Z,81.5
2018-03-02T12:51:32.150Z,87.1
2018-03-02T13:01:26.896Z,57.5
2018-03-02T13:11:26.291Z,69.7
2018-03-02T13:21:26.853Z,71.6
2018-03-02T13:31:26.525Z,64.1
2018-03-02T13:41:27.253Z,65.2
2018-03-02T13:51:28.743Z,61.9
2018-03-02T14:01:29.015Z,61.2
2018-03-02T14:11:27.284Z,56.2
2018-03-02T14:21:27.281Z,57.2
2018-03-02T14:31:26.654Z,55.4
2018-03-02T14:41:27.169Z,62.7
2018-03-02T14:51:26.867Z,50.4
2018-03-02T15:01:26.618Z,56.6
2018-03-02T15:11:27.017Z,51.1
2018-03-02T15:21:27.009Z,50.3
2018-03-02T15:31:26.628Z,51.6
2018-03-02T15:41:28.446Z,41.2
2018-03-02T15:51:26.528Z,43.6
2018-03-02T16:01:26.991Z,42.1
2018-03-02T16:11:27.380Z,69.2
2018-03-02T16:21:27.810Z,44.7
2018-03-02T16:31:26.619Z,43.5
2018-03-02T16:41:27.084Z,45.7
2018-03-02T16:51:26.527Z,44.6
2018-03-02T17:01:27.276Z,42.5
2018-03-02T17:11:27.889Z,45.6
2018-03-02T17:21:26.535Z,55.9
2018-03-02T17:31:27.742Z,36.8
2018-03-02T17:41:32.919Z,40.9
2018-03-02T17:51:26.396Z,53.9
2018-03-02T18:01:26.760Z,40.0
2018-03-02T18:11:26.255Z,51.2
2018-03-02T18:21:26.872Z,54.3
2018-03-02T18:31:26.906Z,57.1
2018-03-02T18:41:28.698Z,50.4
2018-03-02T18:51:26.377Z,57.7
2018-03-02T19:01:28.763Z,57.2
2018-03-02T19:11:26.149Z,52.0
2018-03-02T19:21:27.737Z,53.8
2018-03-02T19:31:27.920Z,54.5
2018-03-02T19:41:27.900Z,46.4
2018-03-02T19:51:28.601Z,46.7
2018-03-02T20:01:27.207Z,48.8
2018-03-02T20:11:28.011Z,61.5
2018-03-02T20:21:26.303Z,53.9
2018-03-02T20:31:27.762Z,53.0
2018-03-02T20:41:27.652Z,54.2
2018-03-02T20:51:32.849Z,56.2
2018-03-02T21:01:26.428Z,53.2
2018-03-02T21:11:26.990Z,55.0
2018-03-02T21:21:26.717Z,62.8
2018-03-02T21:31:26.724Z,63.9
2018-03-02T21:41:26.355Z,49.6
2018-03-02T21:51:27.026Z,51.3
2018-03-02T22:01:26.934Z,61.4
2018-03-02T22:11:26.340Z,53.3
2018-03-02T22:21:27.113Z,62.8
2018-03-02T22:31:27.668Z,61.4
2018-03-02T22:41:27.430Z,56.7
2018-03-02T22:51:27.082Z,69.3
2018-03-02T23:01:27.117Z,52.2
2018-03-02T23:11:28.289Z,53.4
2018-03-02T23:21:27.195Z,50.6
2018-03-02T23:31:28.889Z,58.5
2018-03-02T23:41:27.020Z,55.4
2018-03-02T23:51:27.857Z,49.4
